TimeCDT,TemperatureF,Dew PointF,Humidity,Sea Level PressureIn,VisibilityMPH,Wind Direction,Wind SpeedMPH,Gust SpeedMPH,PrecipitationIn,Events,Conditions,WindDirDegrees,DateUTC
12:53 AM,57.9,54.0,87,30.11,10.0,South,5.8,-,N/A,,Clear,170,2013-03-16 05:53:00
1:53 AM,57.0,53.1,87,30.09,10.0,South,4.6,-,N/A,,Clear,180,2013-03-16 06:53:00
2:53 AM,55.9,52.0,87,30.06,10.0,Calm,Calm,-,N/A,,Clear,0,2013-03-16 07:53:00
3:53 AM,55.0,53.1,93,30.05,10.0,South,3.5,-,N/A,,Clear,180,2013-03-16 08:53:00
4:53 AM,54.0,52.0,93,30.04,4.0,Calm,Calm,-,N/A,,Clear,0,2013-03-16 09:53:00
5:23 AM,53.6,51.8,94,30.05,1.8,Calm,Calm,-,N/A,,Clear,0,2013-03-16 10:23:00
5:35 AM,53.6,51.8,94,30.05,4.0,Calm,Calm,-,N/A,,Clear,0,2013-03-16 10:35:00
5:53 AM,51.1,50.0,96,30.05,4.0,Calm,Calm,-,0.01,,Clear,0,2013-03-16 10:53:00
6:05 AM,50.0,48.2,94,30.05,1.5,Calm,Calm,-,N/A,,Clear,0,2013-03-16 11:05:00
6:20 AM,50.0,48.2,94,30.05,3.0,Calm,Calm,-,N/A,,Clear,0,2013-03-16 11:20:00
6:31 AM,51.8,48.2,88,30.05,2.0,Calm,Calm,-,N/A,,Clear,0,2013-03-16 11:31:00
6:49 AM,50.0,48.2,94,30.06,1.2,Calm,Calm,-,N/A,,Clear,0,2013-03-16 11:49:00
6:53 AM,50.0,48.0,93,30.06,1.2,Calm,Calm,-,N/A,,Clear,0,2013-03-16 11:53:00
7:05 AM,51.8,48.2,88,30.06,0.8,Calm,Calm,-,N/A,,Partly Cloudy,0,2013-03-16 12:05:00
7:15 AM,51.8,50.0,94,30.05,3.0,Calm,Calm,-,N/A,,Mostly Cloudy,0,2013-03-16 12:15:00
7:50 AM,53.6,51.8,94,30.06,3.0,Calm,Calm,-,N/A,,Mostly Cloudy,0,2013-03-16 12:50:00
7:53 AM,53.1,51.1,93,30.06,6.0,Calm,Calm,-,N/A,,Mostly Cloudy,0,2013-03-16 12:53:00
8:53 AM,60.1,57.9,93,30.07,10.0,Calm,Calm,-,N/A,,Mostly Cloudy,0,2013-03-16 13:53:00
9:53 AM,66.0,57.9,75,30.08,10.0,SSW,9.2,-,N/A,,Partly Cloudy,200,2013-03-16 14:53:00
10:53 AM,69.1,55.0,61,30.07,10.0,SW,15.0,-,N/A,,Scattered Clouds,230,2013-03-16 15:53:00
11:53 AM,71.1,54.0,55,30.08,10.0,SW,15.0,23.0,N/A,,Mostly Cloudy,230,2013-03-16 16:53:00
12:53 PM,73.9,55.0,52,30.06,10.0,SSW,13.8,-,N/A,,Scattered Clouds,200,2013-03-16 17:53:00
1:53 PM,73.9,55.0,52,30.03,10.0,SW,11.5,21.9,N/A,,Mostly Cloudy,220,2013-03-16 18:53:00
2:53 PM,75.0,55.0,50,29.99,10.0,SSW,12.7,23.0,N/A,,Partly Cloudy,210,2013-03-16 19:53:00
3:53 PM,73.9,54.0,50,29.96,10.0,South,12.7,19.6,N/A,,Scattered Clouds,190,2013-03-16 20:53:00
4:53 PM,73.0,55.0,53,29.96,10.0,South,15.0,25.3,N/A,,Partly Cloudy,190,2013-03-16 21:53:00
5:53 PM,71.1,55.9,59,29.95,10.0,South,12.7,-,N/A,,Clear,180,2013-03-16 22:53:00
6:53 PM,68.0,55.0,63,29.96,10.0,South,10.4,-,N/A,,Scattered Clouds,180,2013-03-16 23:53:00
7:53 PM,66.0,55.0,68,29.96,10.0,South,6.9,-,N/A,,Clear,180,2013-03-17 00:53:00
8:53 PM,63.0,55.9,78,29.97,10.0,South,4.6,-,N/A,,Clear,180,2013-03-17 01:53:00
9:53 PM,62.1,57.9,86,29.99,10.0,South,4.6,-,N/A,,Clear,170,2013-03-17 02:53:00
10:53 PM,62.1,57.9,86,29.98,10.0,SSE,3.5,-,N/A,,Clear,160,2013-03-17 03:53:00
11:53 PM,62.1,57.9,86,29.96,10.0,SSE,4.6,-,N/A,,Clear,160,2013-03-17 04:53:00